Time;durP1;ratioP1;P1;durP2;ratioP2;P2;SDS_P1;SDS_P2;PMS_P1;PMS_P2;Temp;Humidity;BMP_temperature;BMP_pressure;BME280_temperature;BME280_humidity;BME280_pressure;Samples;Min_cycle;Max_cycle;Signal;HPM_P1;HPM_P2
2022/04/16 00:01:03;;;;;;;0.20;0.20;;;;;;;8.45;87.51;102691.66;5105417;27;20035;-64
2022/04/16 00:03:29;;;;;;;0.10;0.10;;;;;;;8.63;85.65;102684.69;5105342;28;20032;-64
2022/04/16 00:05:55;;;;;;;0.10;0.10;;;;;;;8.38;86.56;102693.88;5105326;28;20036;-64
2022/04/16 00:08:23;;;;;;;0.10;0.10;;;;;;;8.46;85.71;102695.91;5104873;28;20066;-64
2022/04/16 00:10:49;;;;;;;0.20;0.20;;;;;;;8.50;84.05;102694.25;5100850;28;20218;-65
2022/04/16 00:13:16;;;;;;;0.10;0.10;;;;;;;8.29;85.11;102694.81;5085272;28;20035;-64
2022/04/16 00:15:43;;;;;;;0.10;0.10;;;;;;;8.29;84.62;102711.72;5085282;28;20830;-64
2022/04/16 00:18:10;;;;;;;0.20;0.20;;;;;;;8.35;83.77;102709.78;5085962;28;20028;-64
2022/04/16 00:20:35;;;;;;;0.10;0.10;;;;;;;8.26;83.21;102700.78;5086144;28;20062;-64
2022/04/16 00:23:01;;;;;;;0.10;0.10;;;;;;;8.20;83.03;102703.50;5086173;28;20138;-65
2022/04/16 00:25:28;;;;;;;0.10;0.10;;;;;;;7.95;84.84;102695.75;5084407;28;20085;-64
2022/04/16 00:27:55;;;;;;;0.10;0.10;;;;;;;8.02;84.15;102700.75;5085191;28;20028;-65
2022/04/16 00:30:20;;;;;;;0.20;0.20;;;;;;;7.84;85.23;102701.53;5091601;28;20028;-64
2022/04/16 00:32:46;;;;;;;0.10;0.10;;;;;;;7.92;84.96;102699.00;5105666;28;20051;-65
2022/04/16 00:35:13;;;;;;;1.50;0.63;;;;;;;7.80;85.74;102689.78;5103852;28;20031;-64
2022/04/16 00:37:39;;;;;;;0.10;0.10;;;;;;;7.78;85.88;102690.03;5105821;28;20032;-65
2022/04/16 00:40:06;;;;;;;0.10;0.10;;;;;;;7.92;84.39;102690.16;5104607;28;20034;-64
2022/04/16 00:42:43;;;;;;;0.47;0.47;;;;;;;7.75;85.33;102682.56;5106569;28;20129;-64
2022/04/16 00:45:10;;;;;;;0.10;0.10;;;;;;;7.70;85.55;102689.88;5104142;28;20152;-65
2022/04/16 00:47:36;;;;;;;0.10;0.10;;;;;;;7.66;85.51;102678.94;5104507;28;20035;-65
2022/04/16 00:50:05;;;;;;;0.10;0.10;;;;;;;7.66;85.19;102691.53;5106777;28;20035;-65
2022/04/16 00:52:31;;;;;;;0.10;0.10;;;;;;;7.66;84.96;102704.94;5103219;28;20231;-66
2022/04/16 00:54:57;;;;;;;0.30;0.30;;;;;;;7.63;85.08;102700.13;5104481;28;20118;-65
2022/04/16 00:57:25;;;;;;;0.10;0.10;;;;;;;7.60;85.18;102706.06;5106048;28;20036;-64
2022/04/16 00:59:52;;;;;;;0.20;0.20;;;;;;;7.54;85.15;102708.00;5101450;28;20051;-64
2022/04/16 01:02:17;;;;;;;0.20;0.20;;;;;;;7.48;85.33;102703.78;5085373;28;20114;-64
2022/04/16 01:04:43;;;;;;;0.17;0.17;;;;;;;7.45;85.60;102711.59;5094819;28;20039;-64
2022/04/16 01:07:09;;;;;;;0.10;0.10;;;;;;;7.44;85.65;102713.44;5104493;28;20036;-65
2022/04/16 01:09:35;;;;;;;0.20;0.20;;;;;;;7.41;86.02;102716.72;5099384;28;20020;-65
2022/04/16 01:12:00;;;;;;;0.10;0.10;;;;;;;7.39;86.13;102716.19;5105664;28;20482;-65
2022/04/16 01:14:26;;;;;;;0.10;0.10;;;;;;;7.37;86.04;102720.22;5103477;28;20039;-65
2022/04/16 01:16:56;;;;;;;0.10;0.10;;;;;;;7.27;86.54;102723.78;5103935;28;20035;-66
2022/04/16 01:19:23;;;;;;;0.10;0.10;;;;;;;7.25;86.81;102712.56;5095767;28;20036;-65
2022/04/16 01:21:50;;;;;;;0.20;0.20;;;;;;;7.21;86.50;102717.69;5097365;27;20022;-67
2022/04/16 01:24:15;;;;;;;0.13;0.13;;;;;;;7.17;86.55;102722.00;5123706;27;20035;-66
2022/04/16 01:26:41;;;;;;;0.10;0.10;;;;;;;7.14;86.94;102722.53;5124696;27;20095;-66
2022/04/16 01:29:08;;;;;;;0.30;0.30;;;;;;;7.11;86.26;102719.63;5107175;27;20092;-65
2022/04/16 01:31:34;;;;;;;0.20;0.20;;;;;;;7.09;86.53;102727.94;5097716;27;20074;-65
2022/04/16 01:34:00;;;;;;;0.10;0.10;;;;;;;6.96;86.94;102727.78;5100213;28;20063;-65
2022/04/16 01:36:29;;;;;;;0.10;0.10;;;;;;;6.88;88.03;102726.50;5105664;28;20043;-64
2022/04/16 01:38:56;;;;;;;0.10;0.10;;;;;;;6.88;87.89;102741.75;5105178;28;20422;-65
2022/04/16 01:41:22;;;;;;;0.10;0.10;;;;;;;6.88;87.77;102739.91;5092514;28;20032;-65
2022/04/16 01:43:47;;;;;;;0.10;0.10;;;;;;;6.85;88.21;102751.13;5084732;28;20066;-65
2022/04/16 01:46:12;;;;;;;0.10;0.10;;;;;;;6.86;87.87;102750.09;5083388;28;20039;-65
2022/04/16 01:48:38;;;;;;;0.15;0.15;;;;;;;6.83;88.51;102747.16;5083198;28;20406;-65
2022/04/16 01:51:05;;;;;;;0.20;0.20;;;;;;;6.81;88.23;102744.78;5084362;28;20039;-65
2022/04/16 01:53:31;;;;;;;0.10;0.10;;;;;;;6.75;87.99;102745.88;5085051;28;20035;-65
2022/04/16 01:55:57;;;;;;;0.10;0.10;;;;;;;6.76;87.88;102747.47;5085055;28;20418;-66
2022/04/16 01:58:22;;;;;;;0.30;0.30;;;;;;;6.71;88.23;102742.16;5082747;28;20035;-65
2022/04/16 02:00:49;;;;;;;0.13;0.13;;;;;;;6.69;87.93;102759.56;5100382;27;20490;-66
2022/04/16 02:03:14;;;;;;;0.20;0.20;;;;;;;6.65;87.88;102761.19;5125379;27;20043;-65
2022/04/16 02:05:40;;;;;;;0.20;0.20;;;;;;;6.61;88.47;102754.78;5120212;27;20039;-65
2022/04/16 02:08:07;;;;;;;0.10;0.10;;;;;;;6.55;87.61;102756.69;5103807;28;20095;-65
2022/04/16 02:10:35;;;;;;;0.10;0.10;;;;;;;6.53;88.04;102760.69;5125813;27;20090;-66
2022/04/16 02:13:01;;;;;;;0.10;0.10;;;;;;;6.49;87.88;102762.31;5125186;27;20114;-65
2022/04/16 02:15:27;;;;;;;0.10;0.10;;;;;;;6.42;88.54;102753.78;5113281;27;20570;-65
2022/04/16 02:17:54;;;;;;;0.10;0.10;;;;;;;6.43;88.89;102764.22;5104654;28;20070;-67
2022/04/16 02:20:23;;;;;;;0.10;0.10;;;;;;;6.36;88.66;102753.84;5104854;28;20039;-67
2022/04/16 02:22:49;;;;;;;0.10;0.10;;;;;;;6.34;89.03;102763.19;5103485;28;20065;-66
2022/04/16 02:25:20;;;;;;;0.20;0.20;;;;;;;6.30;89.42;102770.97;5088964;28;20558;-64
2022/04/16 02:27:46;;;;;;;0.13;0.13;;;;;;;6.27;89.48;102749.31;5102818;28;20297;-65
2022/04/16 02:30:14;;;;;;;0.13;0.13;;;;;;;6.25;88.90;102762.19;5104781;28;20031;-64
2022/04/16 02:32:45;;;;;;;0.20;0.20;;;;;;;6.17;89.75;102762.72;5105371;28;20100;-65
2022/04/16 02:35:13;;;;;;;0.90;0.73;;;;;;;6.14;89.71;102756.03;5106612;28;20031;-67
2022/04/16 02:37:38;;;;;;;0.20;0.20;;;;;;;6.13;90.35;102767.03;5107121;28;20160;-65
2022/04/16 02:40:05;;;;;;;0.20;0.20;;;;;;;6.09;90.23;102757.94;5107369;27;20491;-65
2022/04/16 02:42:38;;;;;;;0.10;0.10;;;;;;;6.07;90.63;102754.72;5107211;28;20040;-65
2022/04/16 02:47:52;;;;;;;0.10;0.10;;;;;;;6.08;91.26;102764.34;5107903;28;20054;-65
2022/04/16 02:50:19;;;;;;;0.20;0.20;;;;;;;6.06;90.70;102764.63;5107497;28;20032;-65
2022/04/16 02:52:46;;;;;;;0.13;0.13;;;;;;;6.05;90.98;102773.72;5108192;28;20028;-64
2022/04/16 02:55:15;;;;;;;0.10;0.10;;;;;;;6.01;90.94;102771.88;5108595;28;20478;-65
2022/04/16 02:57:42;;;;;;;0.10;0.10;;;;;;;6.02;91.05;102773.47;5100882;28;20135;-65
2022/04/16 03:00:10;;;;;;;0.10;0.10;;;;;;;6.02;90.16;102776.94;5099891;28;20039;-65
2022/04/16 03:02:35;;;;;;;0.10;0.10;;;;;;;5.98;90.32;102770.53;5107768;28;20027;-65
2022/04/16 03:05:02;;;;;;;0.20;0.20;;;;;;;5.97;90.74;102776.16;5099443;28;20028;-65
2022/04/16 03:07:27;;;;;;;0.20;0.20;;;;;;;5.91;90.47;102777.22;5105660;27;20038;-65
2022/04/16 03:09:53;;;;;;;0.20;0.20;;;;;;;5.89;89.95;102774.84;5102450;28;20028;-64
2022/04/16 03:12:18;;;;;;;0.28;0.28;;;;;;;5.84;90.55;102774.84;5107669;27;20032;-65
2022/04/16 03:17:33;;;;;;;0.20;0.20;;;;;;;5.76;90.09;102770.00;5101863;28;20107;-64
2022/04/16 03:19:59;;;;;;;0.20;0.20;;;;;;;5.77;90.65;102774.28;5087419;28;20040;-63
2022/04/16 03:22:25;;;;;;;0.20;0.20;;;;;;;5.78;90.59;102777.75;5086912;28;20050;-64
2022/04/16 03:24:51;;;;;;;0.20;0.20;;;;;;;5.77;90.10;102784.19;5085483;28;20048;-64
2022/04/16 03:27:16;;;;;;;0.17;0.17;;;;;;;5.74;90.07;102784.72;5092062;28;20045;-64
2022/04/16 03:29:42;;;;;;;0.17;0.17;;;;;;;5.72;89.68;102778.84;5099090;27;20038;-64
2022/04/16 03:32:08;;;;;;;0.20;0.20;;;;;;;5.64;90.15;102785.53;5103950;28;20040;-64
2022/04/16 03:34:33;;;;;;;0.17;0.17;;;;;;;5.64;89.93;102782.84;5106253;28;20417;-64
2022/04/16 03:36:59;;;;;;;0.17;0.17;;;;;;;5.66;90.09;102790.59;5097046;28;20035;-64
2022/04/16 03:39:25;;;;;;;0.10;0.10;;;;;;;5.65;89.42;102791.69;5107950;28;20050;-64
2022/04/16 03:41:54;;;;;;;0.10;0.10;;;;;;;5.59;89.74;102793.56;5095323;28;20038;-64
2022/04/16 03:44:20;;;;;;;0.10;0.10;;;;;;;5.53;89.59;102793.81;5095650;27;20036;-64
2022/04/16 03:46:46;;;;;;;0.20;0.20;;;;;;;5.44;89.98;102797.00;5107446;27;20031;-64
2022/04/16 03:49:11;;;;;;;0.15;0.15;;;;;;;5.34;90.25;102799.69;5104069;27;20489;-64
2022/04/16 03:51:37;;;;;;;0.10;0.10;;;;;;;5.33;90.58;102795.41;5106457;28;20043;-66
2022/04/16 04:02:14;;;;;;;0.20;0.20;;;;;;;5.30;90.26;102806.63;5083726;28;20032;-66
2022/04/16 04:04:40;;;;;;;0.30;0.30;;;;;;;5.30;89.60;102806.63;5085718;28;20648;-67
2022/04/16 04:07:06;;;;;;;0.20;0.20;;;;;;;5.26;90.00;102810.09;5085563;28;20032;-66
2022/04/16 04:09:31;;;;;;;0.10;0.10;;;;;;;5.24;90.18;102810.38;5085682;28;20036;-66
2022/04/16 04:11:57;;;;;;;0.30;0.30;;;;;;;5.23;90.38;102806.09;5085730;28;20036;-66
2022/04/16 04:14:22;;;;;;;0.10;0.10;;;;;;;5.22;90.43;102817.03;5085481;28;20039;-63
2022/04/16 04:16:48;;;;;;;0.10;0.10;;;;;;;5.17;90.57;102814.34;5085722;28;20047;-64
2022/04/16 04:19:13;;;;;;;0.10;0.10;;;;;;;5.18;91.33;102813.28;5093066;28;20031;-64
2022/04/16 04:21:38;;;;;;;0.20;0.20;;;;;;;5.19;90.65;102817.53;5101525;28;20059;-66
2022/04/16 04:24:04;;;;;;;0.43;0.43;;;;;;;5.17;90.53;102814.34;5092330;28;20533;-67
2022/04/16 04:26:29;;;;;;;0.15;0.15;;;;;;;5.16;90.89;102824.25;5089623;28;20062;-66
2022/04/16 04:28:55;;;;;;;0.10;0.10;;;;;;;5.11;90.85;102820.75;5103891;28;20115;-68
2022/04/16 04:31:20;;;;;;;0.20;0.20;;;;;;;5.14;90.89;102817.56;5095689;28;20058;-66
2022/04/16 04:33:46;;;;;;;0.20;0.20;;;;;;;5.14;90.96;102825.56;5112194;27;20654;-66
2022/04/16 04:36:11;;;;;;;0.13;0.13;;;;;;;5.08;91.01;102816.75;5098485;28;20032;-66
2022/04/16 04:38:37;;;;;;;0.10;0.10;;;;;;;5.03;91.05;102821.28;5105407;27;20043;-66
2022/04/16 04:41:04;;;;;;;0.20;0.20;;;;;;;4.99;92.02;102818.34;5097546;28;20103;-67
2022/04/16 04:43:29;;;;;;;0.20;0.20;;;;;;;4.96;92.05;102818.84;5086843;28;20028;-66
2022/04/16 04:45:55;;;;;;;0.10;0.10;;;;;;;4.95;92.82;102819.94;5113462;27;21080;-64
2022/04/16 04:48:20;;;;;;;0.10;0.10;;;;;;;4.97;93.37;102815.13;5123690;27;20031;-64
2022/04/16 04:50:46;;;;;;;0.17;0.17;;;;;;;4.97;93.35;102825.81;5126179;27;20500;-64
2022/04/16 04:53:12;;;;;;;0.20;0.20;;;;;;;5.07;93.34;102831.16;5101638;27;20028;-64
2022/04/16 04:55:37;;;;;;;0.20;0.20;;;;;;;5.09;92.96;102829.00;5090802;28;20039;-65
2022/04/16 04:58:03;;;;;;;0.10;0.10;;;;;;;5.18;92.46;102838.13;5115121;27;20031;-67
2022/04/16 05:00:28;;;;;;;0.10;0.10;;;;;;;5.24;92.57;102839.75;5108782;27;20443;-67
2022/04/16 05:02:53;;;;;;;0.10;0.10;;;;;;;5.16;92.80;102844.78;5104087;28;20559;-67
2022/04/16 05:05:19;;;;;;;0.22;0.22;;;;;;;5.06;92.93;102840.22;5104465;28;20472;-67
2022/04/16 05:07:44;;;;;;;0.20;0.20;;;;;;;5.03;93.66;102847.97;5104295;28;20034;-67
2022/04/16 05:10:10;;;;;;;0.15;0.15;;;;;;;5.02;94.14;102847.16;5099863;28;20430;-66
2022/04/16 05:12:36;;;;;;;0.20;0.20;;;;;;;5.12;93.73;102855.22;5084485;28;20077;-66
2022/04/16 05:15:02;;;;;;;0.17;0.17;;;;;;;5.14;93.39;102850.41;5066018;28;20040;-66
2022/04/16 05:17:27;;;;;;;0.20;0.20;;;;;;;5.15;93.48;102860.00;5115811;27;20207;-66
2022/04/16 05:19:52;;;;;;;0.38;0.38;;;;;;;5.22;93.89;102854.41;5124585;27;20504;-67
2022/04/16 05:22:18;;;;;;;0.20;0.20;;;;;;;5.24;94.21;102860.31;5105222;27;20039;-66
2022/04/16 05:24:45;;;;;;;0.20;0.20;;;;;;;5.25;94.10;102859.22;5103877;28;20054;-64
2022/04/16 05:27:10;;;;;;;0.20;0.20;;;;;;;5.39;93.72;102869.16;5103812;28;20307;-64
2022/04/16 05:32:21;;;;;;;0.20;0.20;;;;;;;5.35;94.13;102862.72;5084467;28;20036;-64
2022/04/16 05:34:46;;;;;;;0.20;0.20;;;;;;;5.43;93.89;102861.41;5083650;28;20457;-64
2022/04/16 05:37:12;;;;;;;0.20;0.20;;;;;;;5.53;94.07;102864.09;5100144;27;20039;-64
2022/04/16 05:39:38;;;;;;;0.20;0.20;;;;;;;5.71;93.20;102868.91;5115247;27;20050;-64
2022/04/16 05:42:04;;;;;;;0.20;0.20;;;;;;;5.93;92.38;102872.13;5123378;27;20035;-64
2022/04/16 05:44:29;;;;;;;0.20;0.20;;;;;;;5.84;93.12;102886.31;5122275;27;20543;-64
2022/04/16 05:46:55;;;;;;;0.20;0.20;;;;;;;5.88;93.08;102895.41;5083707;28;20039;-64
2022/04/16 05:49:20;;;;;;;0.10;0.10;;;;;;;5.95;93.41;102890.59;5084525;28;20032;-64
2022/04/16 05:51:45;;;;;;;0.10;0.10;;;;;;;6.00;93.60;102887.94;5081873;28;20031;-64
2022/04/16 05:54:11;;;;;;;0.20;0.20;;;;;;;6.18;93.84;102898.06;5083289;28;20111;-65
2022/04/16 05:56:36;;;;;;;0.10;0.10;;;;;;;6.42;93.57;102891.06;5083502;28;20119;-64
2022/04/16 05:59:02;;;;;;;0.10;0.10;;;;;;;6.65;93.17;102900.38;5083370;28;20039;-63
2022/04/16 06:01:27;;;;;;;0.10;0.10;;;;;;;6.86;91.67;102901.91;5100179;28;20111;-64
2022/04/16 06:03:53;;;;;;;0.60;0.60;;;;;;;6.92;91.26;102898.13;5092160;28;20310;-64
2022/04/16 06:06:18;;;;;;;0.10;0.10;;;;;;;7.16;89.16;102897.19;5088329;28;20285;-64
2022/04/16 06:08:44;;;;;;;0.10;0.10;;;;;;;7.25;89.02;102894.75;5103209;28;20223;-63
2022/04/16 06:11:11;;;;;;;0.10;0.10;;;;;;;7.47;86.73;102903.19;5105577;28;20042;-67
2022/04/16 06:13:37;;;;;;;0.10;0.10;;;;;;;7.73;84.64;102909.19;5124724;27;20166;-64
2022/04/16 06:16:02;;;;;;;0.28;0.28;;;;;;;7.70;84.79;102897.16;5116097;27;20111;-64
2022/04/16 06:18:28;;;;;;;0.10;0.10;;;;;;;7.71;84.34;102903.28;5120814;28;20066;-64
2022/04/16 06:20:55;;;;;;;0.10;0.10;;;;;;;7.72;84.90;102903.03;5123337;27;20184;-64
2022/04/16 06:23:20;;;;;;;0.10;0.10;;;;;;;7.76;84.74;102895.22;5124358;27;20548;-64
2022/04/16 06:25:46;;;;;;;0.10;0.10;;;;;;;7.94;84.35;102902.56;5103937;27;20059;-65
2022/04/16 06:28:12;;;;;;;0.10;0.10;;;;;;;8.18;83.02;102906.13;5103194;28;20035;-64
2022/04/16 06:30:37;;;;;;;0.10;0.10;;;;;;;8.30;82.82;102903.91;5102591;28;20034;-63
2022/04/16 06:33:03;;;;;;;0.20;0.20;;;;;;;8.55;82.38;102913.59;5103603;28;20371;-64
2022/04/16 06:35:28;;;;;;;0.20;0.20;;;;;;;8.91;80.28;102912.09;5102238;28;20334;-64
2022/04/16 06:37:54;;;;;;;0.20;0.20;;;;;;;9.04;79.46;102901.44;5104154;28;20491;-64
2022/04/16 06:40:19;;;;;;;0.15;0.15;;;;;;;9.17;78.06;102901.81;5104106;28;20023;-64
2022/04/16 06:42:45;;;;;;;0.10;0.10;;;;;;;9.29;77.31;102902.19;5085607;28;20525;-64
2022/04/16 06:45:12;;;;;;;0.10;0.10;;;;;;;9.42;77.42;102906.84;5085602;28;20027;-64
2022/04/16 06:47:38;;;;;;;0.10;0.10;;;;;;;9.72;70.88;102899.09;5103164;28;20140;-66
2022/04/16 06:50:05;;;;;;;0.10;0.10;;;;;;;9.76;71.81;102902.81;5099246;28;20252;-66
2022/04/16 06:52:31;;;;;;;0.10;0.10;;;;;;;10.12;68.36;102913.03;5103898;28;20118;-66
2022/04/16 06:54:59;;;;;;;0.10;0.10;;;;;;;9.99;67.79;102912.66;5092708;28;20141;-66
2022/04/16 06:57:25;;;;;;;0.10;0.10;;;;;;;10.14;69.29;102927.00;5103419;28;20122;-65
2022/04/16 06:59:51;;;;;;;0.10;0.10;;;;;;;10.40;67.51;102923.56;5099230;28;20178;-64
2022/04/16 07:02:17;;;;;;;0.10;0.10;;;;;;;10.36;67.39;102927.13;5081445;28;20043;-65
2022/04/16 07:04:42;;;;;;;0.10;0.10;;;;;;;10.62;64.75;102917.50;5082624;28;20028;-64
2022/04/16 07:07:10;;;;;;;0.10;0.10;;;;;;;10.74;64.87;102923.97;5082796;28;20038;-65
2022/04/16 07:09:40;;;;;;;0.10;0.10;;;;;;;10.87;62.31;102930.47;5083773;28;20169;-65
2022/04/16 07:12:10;;;;;;;0.10;0.10;;;;;;;10.76;61.89;102926.41;5083215;28;20325;-65
2022/04/16 07:14:39;;;;;;;0.10;0.10;;;;;;;11.01;61.70;102931.28;5083421;28;20312;-65
2022/04/16 07:17:05;;;;;;;0.10;0.10;;;;;;;11.11;61.75;102932.97;5081025;28;20035;-65
2022/04/16 07:19:32;;;;;;;0.10;0.10;;;;;;;11.42;60.52;102923.88;5085944;28;20055;-65
2022/04/16 07:21:58;;;;;;;0.10;0.10;;;;;;;11.47;56.56;102931.88;5093430;28;20031;-64
2022/04/16 07:24:25;;;;;;;0.10;0.10;;;;;;;11.35;57.57;102930.81;5105989;28;20035;-65
2022/04/16 07:26:53;;;;;;;0.65;0.20;;;;;;;11.43;57.38;102935.50;5099980;28;20050;-64
2022/04/16 07:29:19;;;;;;;0.10;0.10;;;;;;;11.29;58.56;102930.13;5097595;27;20028;-66
2022/04/16 07:31:45;;;;;;;0.10;0.10;;;;;;;11.49;57.48;102936.97;5107867;27;20043;-64
2022/04/16 07:34:10;;;;;;;0.10;0.10;;;;;;;11.45;57.56;102931.38;5106527;28;20031;-65
2022/04/16 07:36:36;;;;;;;0.10;0.10;;;;;;;11.57;56.19;102939.75;5094314;28;20528;-65
2022/04/16 07:39:01;;;;;;;0.10;0.10;;;;;;;11.98;57.53;102939.59;5102386;28;20503;-65
2022/04/16 07:41:27;;;;;;;0.00;0.00;;;;;;;12.00;56.06;102942.78;5085930;28;20032;-64
2022/04/16 07:43:52;;;;;;;0.10;0.10;;;;;;;11.98;56.44;102947.69;5086002;28;20066;-66
2022/04/16 07:46:21;;;;;;;0.10;0.10;;;;;;;12.28;55.03;102943.44;5086222;28;20111;-64
2022/04/16 07:48:47;;;;;;;0.08;0.08;;;;;;;12.50;52.91;102943.41;5085998;28;20035;-66
2022/04/16 07:51:12;;;;;;;0.03;0.03;;;;;;;12.56;52.03;102948.38;5086264;28;20380;-65
2022/04/16 07:53:38;;;;;;;0.20;0.20;;;;;;;12.51;52.41;102951.22;5086110;28;20065;-65
2022/04/16 07:56:03;;;;;;;0.00;0.00;;;;;;;12.68;51.72;102953.19;5089258;27;20040;-65
2022/04/16 07:58:29;;;;;;;0.08;0.08;;;;;;;12.83;50.60;102943.88;5105950;28;20036;-65
2022/04/16 08:00:54;;;;;;;0.00;0.00;;;;;;;13.11;49.88;102948.75;5095550;28;20040;-65
2022/04/16 08:03:19;;;;;;;0.00;0.00;;;;;;;13.09;49.18;102950.97;5106213;28;20110;-64
2022/04/16 08:05:45;;;;;;;0.00;0.00;;;;;;;13.21;48.30;102955.78;5102489;28;20478;-64
2022/04/16 08:08:10;;;;;;;0.00;0.00;;;;;;;13.39;48.69;102960.13;5099604;28;20061;-64
2022/04/16 08:10:37;;;;;;;0.00;0.00;;;;;;;13.43;47.63;102964.56;5106035;28;20486;-64
2022/04/16 08:13:07;;;;;;;0.00;0.00;;;;;;;13.23;48.88;102953.56;5087737;28;20139;-64
2022/04/16 08:15:34;;;;;;;0.08;0.08;;;;;;;13.27;49.35;102954.53;5105484;27;20263;-64
2022/04/16 08:18:00;;;;;;;0.00;0.00;;;;;;;13.56;49.49;102968.25;5105131;28;20042;-64
2022/04/16 08:20:25;;;;;;;0.00;0.00;;;;;;;13.94;47.65;102968.41;5106103;28;20027;-64
2022/04/16 08:22:52;;;;;;;0.05;0.05;;;;;;;13.99;47.90;102957.41;5105545;28;20015;-65
2022/04/16 08:27:51;;;;;;;0.00;0.00;;;;;;;13.97;46.61;102965.88;5083641;28;20218;-65
2022/04/16 08:30:17;;;;;;;0.00;0.00;;;;;;;13.93;44.65;102973.03;5085628;28;20024;-64
2022/04/16 08:32:44;;;;;;;0.00;0.00;;;;;;;13.81;45.10;102970.16;5085856;28;20509;-64
2022/04/16 08:35:16;;;;;;;0.00;0.00;;;;;;;13.96;45.61;102972.38;5082964;28;20470;-64
2022/04/16 08:37:43;;;;;;;0.00;0.00;;;;;;;14.24;45.43;102976.34;5112671;27;20027;-65
2022/04/16 08:40:09;;;;;;;0.00;0.00;;;;;;;14.41;44.33;102979.03;5099109;28;20225;-65
2022/04/16 08:42:37;;;;;;;0.00;0.00;;;;;;;14.43;44.84;102979.53;5102870;28;20092;-65
2022/04/16 08:45:04;;;;;;;0.00;0.00;;;;;;;14.59;44.13;102981.69;5105702;28;20590;-66
2022/04/16 08:47:30;;;;;;;0.00;0.00;;;;;;;14.50;43.67;102973.59;5105972;28;20420;-65
2022/04/16 08:49:57;;;;;;;0.00;0.00;;;;;;;14.55;43.71;102976.13;5092359;28;20036;-64
2022/04/16 08:52:24;;;;;;;0.10;0.10;;;;;;;14.67;45.23;102967.31;5085359;28;20422;-65
2022/04/16 08:54:49;;;;;;;0.20;0.20;;;;;;;14.98;44.12;102978.69;5083834;28;20128;-64
2022/04/16 08:57:14;;;;;;;0.10;0.10;;;;;;;14.84;43.34;102980.81;5096190;28;20071;-65
2022/04/16 08:59:52;;;;;;;0.00;0.00;;;;;;;15.17;43.06;102987.19;5100936;28;20410;-65
2022/04/16 09:02:22;;;;;;;0.00;0.00;;;;;;;14.73;42.71;102979.59;5096926;28;20036;-65
2022/04/16 09:04:49;;;;;;;0.00;0.00;;;;;;;14.78;42.25;102974.78;5085930;28;20176;-65
2022/04/16 09:07:15;;;;;;;0.00;0.00;;;;;;;14.69;43.06;102984.06;5105225;28;20117;-65
2022/04/16 09:09:41;;;;;;;0.00;0.00;;;;;;;15.02;43.05;102982.31;5105458;28;20099;-65
2022/04/16 09:12:20;;;;;;;0.00;0.00;;;;;;;15.23;43.35;102978.50;5103912;28;20035;-65
2022/04/16 09:14:46;;;;;;;0.00;0.00;;;;;;;15.48;43.50;102982.25;5104991;28;20244;-66
2022/04/16 09:17:16;;;;;;;0.00;0.00;;;;;;;15.61;42.50;102978.47;5100065;28;20467;-65
2022/04/16 09:19:42;;;;;;;0.00;0.00;;;;;;;15.92;42.24;102981.56;5105344;28;20031;-65
2022/04/16 09:22:11;;;;;;;0.00;0.00;;;;;;;16.00;40.88;102986.13;5101321;27;20036;-65
2022/04/16 09:24:54;;;;;;;0.00;0.00;;;;;;;16.11;41.02;102983.78;5104915;28;20027;-66
2022/04/16 09:27:19;;;;;;;0.00;0.00;;;;;;;15.94;41.55;102979.31;5103521;28;20489;-65
2022/04/16 09:29:46;;;;;;;0.00;0.00;;;;;;;15.98;40.77;102974.78;5091246;27;20047;-65
2022/04/16 09:32:22;;;;;;;0.00;0.00;;;;;;;16.24;39.62;102983.47;5084745;28;20085;-66
2022/04/16 09:34:47;;;;;;;0.00;0.00;;;;;;;16.18;40.06;102978.59;5082227;28;20191;-65
2022/04/16 09:37:13;;;;;;;0.00;0.00;;;;;;;16.25;39.49;102987.00;5111996;27;20621;-65
2022/04/16 09:39:40;;;;;;;0.00;0.00;;;;;;;16.35;40.26;102983.06;5123882;27;20042;-66
2022/04/16 09:42:05;;;;;;;0.00;0.00;;;;;;;16.31;38.95;102982.13;5124446;27;20030;-66
2022/04/16 09:44:31;;;;;;;0.00;0.00;;;;;;;16.18;39.57;102978.59;5084216;27;20020;-64
2022/04/16 09:46:56;;;;;;;0.00;0.00;;;;;;;16.47;39.79;102980.38;5083622;28;20056;-65
2022/04/16 09:49:23;;;;;;;0.10;0.10;;;;;;;16.42;39.07;102983.28;5084963;28;20108;-65
2022/04/16 09:51:50;;;;;;;0.10;0.10;;;;;;;16.36;41.52;102980.00;5083856;28;20036;-65
2022/04/16 09:54:16;;;;;;;0.00;0.00;;;;;;;16.54;38.83;102984.16;5084296;28;20540;-64
2022/04/16 09:56:46;;;;;;;0.00;0.00;;;;;;;16.73;39.28;102973.50;5101371;27;20042;-65
2022/04/16 09:59:12;;;;;;;0.22;0.22;;;;;;;16.75;38.53;102975.91;5124890;27;20401;-65
2022/04/16 10:01:58;;;;;;;0.00;0.00;;;;;;;16.88;38.40;102974.75;5089137;27;20043;-65
2022/04/16 10:04:25;;;;;;;0.00;0.00;;;;;;;17.05;37.70;102975.31;5084214;28;20071;-65
2022/04/16 10:06:51;;;;;;;0.00;0.00;;;;;;;17.13;37.84;102979.88;5084096;28;20032;-65
2022/04/16 10:09:22;;;;;;;0.00;0.00;;;;;;;17.19;39.07;102979.66;5100323;28;20043;-64
2022/04/16 10:14:34;;;;;;;0.10;0.10;;;;;;;17.48;37.27;102972.00;5083596;28;20036;-64
2022/04/16 10:17:21;;;;;;;0.10;0.10;;;;;;;17.70;37.88;102984.31;5083156;28;20493;-65
2022/04/16 10:19:47;;;;;;;0.00;0.00;;;;;;;17.37;36.06;102970.06;5082885;28;20487;-64
2022/04/16 10:22:24;;;;;;;0.00;0.00;;;;;;;17.55;37.07;102966.78;5085338;28;20528;-65
2022/04/16 10:24:51;;;;;;;0.00;0.00;;;;;;;17.80;38.23;102959.31;5103750;28;20027;-65
2022/04/16 10:27:22;;;;;;;0.05;0.05;;;;;;;17.74;37.42;102964.22;5103249;28;20106;-65
2022/04/16 10:29:48;;;;;;;0.20;0.20;;;;;;;17.57;36.28;102959.06;5098301;28;20305;-64
2022/04/16 10:32:18;;;;;;;0.00;0.00;;;;;;;17.71;35.03;102964.91;5082350;28;20123;-65
2022/04/16 10:34:45;;;;;;;0.10;0.10;;;;;;;17.59;34.86;102959.50;5080691;28;20078;-67
2022/04/16 10:37:21;;;;;;;0.00;0.00;;;;;;;17.50;35.93;102956.09;5108574;28;20533;-64
2022/04/16 10:39:50;;;;;;;0.00;0.00;;;;;;;17.52;36.34;102962.00;5104456;27;20051;-65
2022/04/16 10:42:15;;;;;;;0.00;0.00;;;;;;;17.63;35.86;102960.41;5103675;28;20036;-65
2022/04/16 10:44:46;;;;;;;0.00;0.00;;;;;;;17.71;35.54;102954.00;5099818;28;20047;-65
2022/04/16 10:47:17;;;;;;;0.00;0.00;;;;;;;17.80;34.84;102959.31;5124123;27;20031;-64
2022/04/16 10:49:43;;;;;;;0.00;0.00;;;;;;;17.81;35.70;102958.16;5124878;27;20031;-65
2022/04/16 10:52:19;;;;;;;0.00;0.00;;;;;;;17.74;35.96;102950.59;5125269;27;20026;-65
2022/04/16 10:54:47;;;;;;;0.00;0.00;;;;;;;17.76;36.25;102950.22;5088094;28;20057;-65
2022/04/16 10:57:21;;;;;;;0.00;0.00;;;;;;;18.20;37.17;102957.28;5086040;28;20499;-64
2022/04/16 10:59:47;;;;;;;0.00;0.00;;;;;;;18.60;36.24;102955.22;5087928;28;20107;-65
2022/04/16 11:02:23;;;;;;;0.00;0.00;;;;;;;18.59;33.71;102955.59;5087309;28;20391;-65
2022/04/16 11:05:00;;;;;;;0.55;0.10;;;;;;;18.35;34.45;102963.94;5086537;28;20072;-65
2022/04/16 11:07:27;;;;;;;0.00;0.00;;;;;;;18.30;34.82;102947.78;5115472;27;20067;-65
2022/04/16 11:09:53;;;;;;;0.10;0.10;;;;;;;18.33;34.64;102950.63;5087406;28;20265;-64
2022/04/16 11:12:22;;;;;;;0.00;0.00;;;;;;;18.62;35.00;102946.72;5087611;28;20040;-64
2022/04/16 11:14:52;;;;;;;0.00;0.00;;;;;;;18.67;34.12;102955.44;5085468;28;20043;-65
2022/04/16 11:17:19;;;;;;;0.00;0.00;;;;;;;18.64;33.35;102950.66;5086928;28;20045;-65
2022/04/16 11:19:45;;;;;;;0.00;0.00;;;;;;;18.75;33.15;102945.47;5088100;28;20039;-64
2022/04/16 11:22:11;;;;;;;0.00;0.00;;;;;;;19.03;32.32;102948.84;5086745;28;20298;-64
2022/04/16 11:24:39;;;;;;;0.15;0.08;;;;;;;19.03;32.17;102951.56;5086714;28;20130;-64
2022/04/16 11:35:22;;;;;;;0.00;0.00;;;;;;;18.81;31.96;102936.63;5107107;28;20042;-65
2022/04/16 11:37:55;;;;;;;0.00;0.00;;;;;;;18.82;32.37;102937.44;5099591;28;20024;-65
2022/04/16 11:40:20;;;;;;;0.00;0.00;;;;;;;18.83;32.08;102939.03;5106194;28;20126;-65
2022/04/16 11:42:46;;;;;;;0.00;0.00;;;;;;;18.96;31.62;102940.50;5105840;28;20073;-65
2022/04/16 11:45:14;;;;;;;0.00;0.00;;;;;;;18.96;32.67;102945.16;5102676;28;20038;-65
2022/04/16 11:47:39;;;;;;;0.00;0.00;;;;;;;18.77;33.22;102935.78;5091496;28;20127;-66
2022/04/16 11:50:07;;;;;;;0.00;0.00;;;;;;;19.12;33.03;102941.28;5105011;28;20073;-64
2022/04/16 11:52:34;;;;;;;0.00;0.00;;;;;;;18.92;33.29;102943.16;5105831;28;20084;-65
2022/04/16 11:55:06;;;;;;;0.00;0.00;;;;;;;18.85;33.63;102929.31;5105894;28;20177;-65
2022/04/16 11:57:35;;;;;;;0.00;0.00;;;;;;;19.24;33.66;102927.47;5091464;28;20109;-65